New Century — V7GF8 — position and weather

sailwx.info

Track history (hours):
 
Tides and Currents Weather Stations Pressure Air Temp Water Temp Dewpoint Dewpoint Depression Visibility Wind Speed Wind Dir Waves Ship Positions

New Century

Last reported at 2014-Jul-22 23:08 UTC. Time now 2014-Jul-26 13:10 UTC.
Position N 40°03' W 030°46'.

Length 228 m; draft 13.2 m.

Type: Tanker. MMSI: 538002085.

Date/timePositionNaut miles runAvg speedWind from/ knotsBaromVisibWave heightAir tempDewpointWater temp
2014-Jul-22 23:08N 40°03' W 030°46'711.2
2014-Jul-22 22:31N 40°01' W 030°37'4210.5
2014-Jul-22 18:32N 39°54' W 029°43'2110.6
2014-Jul-22 16:33N 39°51' W 029°16'2210.9
2014-Jul-22 14:33N 39°47' W 028°48'1010.6
2014-Jul-22 13:33N 39°45' W 028°35'1110.9
2014-Jul-22 12:33N 39°43' W 028°21'1110.8
2014-Jul-22 11:33N 39°41' W 028°07'1110.4
2014-Jul-22 10:28N 39°39' W 027°53'1410.5
2014-Jul-22 09:11N 39°37' W 027°35'9111.3
2014-Jul-22 01:07N 39°22' W 025°39'1811.2
2014-Jul-21 23:33N 39°18' W 025°17'1110.7
2014-Jul-21 22:30N 39°16' W 025°02'5411.0
2014-Jul-21 17:32N 39°07' W 023°53'  
2014-Jul-18 22:26N 35°57' W 008°38'5911.1
2014-Jul-18 17:04N 35°57' W 007°24'1811.7
2014-Jul-18 15:32N 35°57' W 007°02'290 5.8
2014-Jul-16 13:07N 36°37' W 001°05'712.7
2014-Jul-16 12:33N 36°38' W 000°57'3912.7
2014-Jul-16 09:31N 36°44' W 000°09'1312.4
2014-Jul-16 08:28N 36°46' E 000°07'5112.0
2014-Jul-16 04:14N 36°55' E 001°09'1112.2
2014-Jul-16 03:22N 36°57' E 001°22'1212.4
2014-Jul-16 02:24N 36°59' E 001°37'2312.3
2014-Jul-16 00:33N 37°04' E 002°05'1711.9
2014-Jul-15 23:06N 37°05' E 002°26'611.8
2014-Jul-15 22:33N 37°06' E 002°34'1212.0
2014-Jul-15 21:33N 37°08' E 002°49'1212.5
2014-Jul-15 20:33N 37°10' E 003°04'3012.1
2014-Jul-15 18:07N 37°15' E 003°41'712.3
2014-Jul-15 17:33N 37°16' E 003°50'  
Track history (hours):
 
Tides and Currents Weather Stations Pressure Air Temp Water Temp Dewpoint Dewpoint Depression Visibility Wind Speed Wind Dir Waves Ship Positions

New Century

Last reported at 2014-Jul-22 23:08 UTC. Time now 2014-Jul-26 13:10 UTC.
Position N 40°03' W 030°46'.

Length 228 m; draft 13.2 m.

Type: Tanker. MMSI: 538002085.

Date/timePositionNaut miles runAvg speedWind from/ knotsBaromVisibWave heightAir tempDewpointWater temp
2014-Jul-22 23:08N 40°03' W 030°46'711.2
2014-Jul-22 22:31N 40°01' W 030°37'4210.5
2014-Jul-22 18:32N 39°54' W 029°43'2110.6
2014-Jul-22 16:33N 39°51' W 029°16'2210.9
2014-Jul-22 14:33N 39°47' W 028°48'1010.6
2014-Jul-22 13:33N 39°45' W 028°35'1110.9
2014-Jul-22 12:33N 39°43' W 028°21'1110.8
2014-Jul-22 11:33N 39°41' W 028°07'1110.4
2014-Jul-22 10:28N 39°39' W 027°53'1410.5
2014-Jul-22 09:11N 39°37' W 027°35'9111.3
2014-Jul-22 01:07N 39°22' W 025°39'1811.2
2014-Jul-21 23:33N 39°18' W 025°17'1110.7
2014-Jul-21 22:30N 39°16' W 025°02'5411.0
2014-Jul-21 17:32N 39°07' W 023°53'  
2014-Jul-18 22:26N 35°57' W 008°38'5911.1
2014-Jul-18 17:04N 35°57' W 007°24'1811.7
2014-Jul-18 15:32N 35°57' W 007°02'290 5.8
2014-Jul-16 13:07N 36°37' W 001°05'712.7
2014-Jul-16 12:33N 36°38' W 000°57'3912.7
2014-Jul-16 09:31N 36°44' W 000°09'1312.4
2014-Jul-16 08:28N 36°46' E 000°07'5112.0
2014-Jul-16 04:14N 36°55' E 001°09'1112.2
2014-Jul-16 03:22N 36°57' E 001°22'1212.4
2014-Jul-16 02:24N 36°59' E 001°37'2312.3
2014-Jul-16 00:33N 37°04' E 002°05'1711.9
2014-Jul-15 23:06N 37°05' E 002°26'611.8
2014-Jul-15 22:33N 37°06' E 002°34'1212.0
2014-Jul-15 21:33N 37°08' E 002°49'1212.5
2014-Jul-15 20:33N 37°10' E 003°04'3012.1
2014-Jul-15 18:07N 37°15' E 003°41'712.3
2014-Jul-15 17:33N 37°16' E 003°50'  

Dump ship's entire track history